Avola, Canada
Current Conditions -  °F | °C
As of 8:27 PM on Monday 20 Oct 2014 (Local Time) from CYRV Reporting Station
Overcast Overcast  
Wind Chill: 50°   Ceiling: 10000
Heat Index: 50°   Visibility: 9mi
Dew Point: 48°   Wind: 0mph
Humidity: 94%   Direction: NA
Pressure: 29.73"   Gusts: NA
Location:  51.78°N, 119.32°W
Report Text: CYRV 210327Z AUTO 00000KT 9SM SCT013 OVC100 10/09 A2973 RMK SLP076
Loading
Personal Weather Stations






























Interactive Weather Map
Tropical Storm Tracking
New forecast layout! Learn more

10-Day Weather Forecast

Advertisements
Track Severe Weather on mobile